ADDS METAR Data INFO
IDs: Format: Raw Decoded Include TAF

Data at: 0027 UTC 11 Dec 2017

KUKI 102356Z AUTO 27005KT 10SM CLR 14/02 A3020 RMK AO2 SLP226 T01440017 10183 20061 56018
KUKI 102256Z AUTO 28003KT 10SM CLR 18/03 A3021 RMK AO2 SLP230 T01780028
KUKI 102156Z AUTO 00000KT 10SM CLR 18/01 A3023 RMK AO2 SLP234 T01780011
KUKI 102056Z AUTO 00000KT 10SM CLR 16/00 A3026 RMK AO2 SLP244 T01610000 58027
KUKI 101956Z AUTO 36003KT 10SM CLR 13/00 A3029 RMK AO2 SLP255 T01330000
KUKI 101856Z AUTO 00000KT 10SM CLR 10/01 A3032 RMK AO2 SLP268 T01000011
KUKI 101756Z AUTO 00000KT 10SM CLR 06/01 A3034 RMK AO2 SLP273 T00610011 10061 21017 51005
KUKI 101656Z AUTO 00000KT 10SM CLR 02/00 A3034 RMK AO2 SLP274 T00220000
KUKI 101556Z AUTO 00000KT 10SM CLR M01/M03 A3033 RMK AO2 SLP272 T10111028
KUKI 101456Z AUTO 00000KT 10SM CLR M01/M02 A3032 RMK AO2 SLP269 T10061022 56001
KUKI 101356Z AUTO 00000KT 10SM CLR M01/M03 A3032 RMK AO2 SLP269 T10111028
KUKI 101256Z AUTO 00000KT 10SM CLR M01/M03 A3032 RMK AO2 SLP268 T10111028
KUKI 101156Z AUTO 00000KT 10SM CLR 01/M02 A3033 RMK AO2 SLP268 T00061017 10039 21006 58002
KUKI 101056Z AUTO 00000KT 10SM CLR 00/M02 A3033 RMK AO2 SLP270 T00001017
KUKI 100956Z AUTO 00000KT 10SM CLR 01/M01 A3034 RMK AO2 SLP271 T00061011
KUKI 100856Z AUTO 00000KT 10SM CLR 01/M01 A3033 RMK AO2 SLP270 T00111006 51003
KUKI 100756Z AUTO 00000KT 10SM CLR 02/M01 A3033 RMK AO2 SLP270 T00171006 401781011
KUKI 100656Z AUTO 00000KT 10SM CLR 03/01 A3033 RMK AO2 SLP270 T00330006
KUKI 100556Z AUTO 00000KT 10SM CLR 03/01 A3032 RMK AO2 SLP268 T00330011 10133 20033 53003
KUKI 100456Z AUTO 00000KT 9SM CLR 05/01 A3031 RMK AO2 SLP266 T00500011
KUKI 100356Z AUTO 00000KT 9SM CLR 05/02 A3031 RMK AO2 SLP265 T00500017
KUKI 100256Z AUTO 00000KT 10SM CLR 07/02 A3031 RMK AO2 SLP265 T00720022 53013
KUKI 100156Z AUTO 00000KT 10SM CLR 09/02 A3030 RMK AO2 SLP259 T00890022
KUKI 100056Z AUTO 00000KT 10SM CLR 11/03 A3028 RMK AO2 SLP255 T01110033
KUKI 092356Z AUTO 27004KT 10SM CLR 13/03 A3027 RMK AO2 SLP250 T01330033 10178 20067 56013
KUKI 092256Z AUTO 00000KT 10SM CLR 17/02 A3027 RMK AO2 SLP249 T01720022
KUKI 092156Z AUTO 00000KT 10SM CLR 17/01 A3029 RMK AO2 SLP254 T01720006
KUKI 092056Z AUTO 34003KT 10SM CLR 15/00 A3031 RMK AO2 SLP263 T01500000 58022
KUKI 091956Z AUTO 00000KT 10SM CLR 12/01 A3034 RMK AO2 SLP273 T01170006